Terminal Aerodrome Forecast
Issued by NWS Twin Cities, MN

Home | Current Version | Previous Version | Graphics & Text | Print | Product List | Glossary On
Versions: 1 2 3 4 5 6 7 8 9 10 11 12 13 14 15 16 17 18 19 20 21 22 23 24 25 26 27 28
565
FTUS43 KMPX 220520
TAFMSP
TAF
KMSP 220520Z 2206/2312 17003KT P6SM BKN250
     FM222000 09007KT P6SM VCSH OVC030
     FM222200 09007KT 2SM -SN BR SCT012 OVC020
     FM230200 11006KT 3/4SM -SN BR VV008
     FM230600 11005KT 2SM -SN BR OVC008
     FM230900 19003KT P6SM OVC010=

USA.gov is the U.S. government's official web portal to all federal, state and local government web resources and services.